Antoine Wiels

Antoine Wiels

Statistiques 2026

  • Courses courues : 91
  • Nb de victoires : 24
  • Nb de places : 51
  • Écart gagnant : -
  • Réussite à la gagne : 26%
  • Réussite à la place : 56%
Musique : 1a 3a 0a 3a 0a 0a 3a 5a Da Da 7a Da 3a 7a Da 1a 8a 1a
DateRangCatégorieAlloc.Dist.HippodromeChevalRed. KmSpé.
01/04/17 0 Trot 22 000€ 2 900m Laval Charlotte Twin Attelé lire

N'a joué aucun rôle.

01/04/17 7 Trot 21 000€ 2 875m Laval Daphne d'hameline 1'17"1 Attelé lire

N'a pu que figurer au sein du peloton.

01/04/17 4 Trot 22 000€ 2 875m Laval Caesar Cehere 1'15"4 Monté lire

Après avoir figuré, a donné un assez bon coup de reins dans la phase finale.

01/04/17 5 Trot 20 000€ 2 875m Laval Dialo des Keches 1'16"7 Monté lire

N'a jamais eu l'ombre d'une chance.

02/04/17 1 Trot 20 000€ 2 850m Maure De Bretagne Dragueur d'Azur 1'16"7 Monté
02/04/17 1 Trot 20 000€ 2 850m Maure De Bretagne Duc du Lupin 1'17"4 Attelé
02/04/17 D Trot 20 000€ 2 850m Maure De Bretagne Djinn la Chesnaie Attelé
02/04/17 1 Trot 22 000€ 2 850m Maure De Bretagne Chacha de Gontier 1'16"7 Attelé
05/04/17 5 Trot 60 000€ 3 125m Angers Uniflosa Bella 1'13"3 Attelé lire

Après avoir figuré, a progressé en dehors en face, soutenant assez bien son effort jusqu'au bout.

05/04/17 3 Trot 20 000€ 2 425m Angers Endia Perrine 1'18"9 Attelé lire

Après avoir figuré derrière les animateurs, a donné un bon coup de reins dans la phase finale.

05/04/17 5 Trot 24 000€ 3 125m Angers Armenie du Lupin 1'16"0 Monté lire

Longtemps en queue de peloton, a comblé du terrain dans la phase finale, sans menacer les premiers.

05/04/17 0 Trot 20 000€ 3 150m Angers Cronos d'hameline Attelé lire

N'a joué aucun rôle utile.

07/04/17 D Trot 14 000€ 2 875m Laval Dino du Chateau Monté
08/04/17 1 Mixte 15 000€ 2 950m Saint Malo Diamant de Carina 1'18"1 Monté
08/04/17 3 Mixte 17 000€ 2 950m Saint Malo Caid du Lupin 1'18"0 Attelé
09/04/17 D Trot 25 000€ 2 925m Challans Clarina Bella Attelé
09/04/17 2 Trot 13 000€ 2 925m Challans Diam Orange 1'16"7 Attelé
09/04/17 D Trot 13 000€ 2 925m Challans Danseur du Lupin Attelé
10/04/17 0 Trot 14 000€ 2 700m Graignes Casino Cehere Monté
13/04/17 4 Trot 23 000€ 2 950m Le Mans Armenie du Lupin 1'15"6 Monté
13/04/17 2 Trot 21 000€ 2 950m Le Mans Duc Lebel 1'16"8 Attelé
16/04/17 2 Trot 14 000€ 2 775m Ecommoy Daphne du Surf 1'20"2 Monté
16/04/17 D Trot 15 000€ 2 775m Ecommoy Clarina Bella Attelé
16/04/17 D Trot 14 000€ 2 750m Ecommoy Docteur de Roche Monté
16/04/17 2 Trot 17 000€ 2 775m Ecommoy Cyrius d'houlbec 1'18"7 Attelé
16/04/17 D Trot 45 000€ 2 800m Ecommoy Uniflosa Bella Attelé
17/04/17 1 Mixte 17 000€ 2 725m Machecoul Diamant du Lupin TNC Attelé
17/04/17 D Mixte 26 000€ 2 725m Machecoul Azur de Carina Attelé
17/04/17 D Mixte 13 000€ 2 700m Machecoul Chicago Bello Monté
19/04/17 D Trot 21 000€ 2 825m Cordemais Douglas Beach Monté lire

A rapidement été sanctionné.

19/04/17 D Trot 21 000€ 2 850m Cordemais Disis d'hameline Attelé lire

A été sanctionnée dans le tournant final.

21/04/17 0 Trot 21 000€ 2 250m Maure De Bretagne Elle de Quelaines Attelé
21/04/17 1 Trot 14 000€ 2 850m Maure De Bretagne Cronos d'hameline 1'16"9 Attelé
21/04/17 1 Trot 25 000€ 2 850m Maure De Bretagne Caesar Cehere 1'16"0 Monté
21/04/17 D Trot 21 000€ 2 850m Maure De Bretagne Declic de Chenu Attelé
21/04/17 5 Trot 20 000€ 2 850m Maure De Bretagne Cesar de Villiers 1'16"3 Attelé
26/04/17 8 Trot 23 000€ 2 450m Caen Cosmopolite Seven 1'16"8 Monté
26/04/17 3 Trot 18 000€ 2 450m Caen Dis Leur 1'16"4 Monté
26/04/17 4 Trot 18 000€ 2 200m Caen Endia Perrine 1'16"4 Attelé
26/04/17 D Trot 18 000€ 2 450m Caen Espion Lacte Monté
27/04/17 0 Trot 20 000€ 2 875m Laval Demolition Dream Attelé
30/04/17 D Trot 18 000€ 2 800m Cholet Calicio Bello Monté
30/04/17 D Trot 21 000€ 2 800m Cholet Arobas Point Cosse Monté
30/04/17 5 Trot 18 000€ 2 825m Cholet Duc Lebel 1'16"8 Attelé
30/04/17 D Trot 18 000€ 2 825m Cholet Bon du Lupin Attelé
30/04/17 5 Trot 25 000€ 2 825m Cholet Azur de Carina 1'17"1 Attelé
30/04/17 5 Trot 32 000€ 2 825m Cholet Topaze de Landerie 1'15"4 Attelé
01/05/17 1 Trot 13 000€ 2 625m La Rochelle Chacha de Gontier 1'15"4 Attelé
01/05/17 D Trot 13 000€ 2 625m La Rochelle Chicago Bello Attelé
01/05/17 4 Trot 22 000€ 2 625m La Rochelle Versaline 1'16"4 Attelé